createdAt,value
2022-08-14T00:00:18.652Z,0.00
2022-08-14T00:01:23.837Z,0.00
2022-08-14T00:02:18.704Z,0.00
2022-08-14T00:03:18.646Z,0.00
2022-08-14T00:04:31.905Z,0.00
2022-08-14T00:05:18.601Z,0.00
2022-08-14T00:06:27.720Z,0.00
2022-08-14T00:07:18.574Z,0.00
2022-08-14T00:08:43.555Z,0.00
2022-08-14T00:09:18.588Z,0.00
2022-08-14T00:10:51.929Z,0.00
2022-08-14T00:11:18.531Z,0.00
2022-08-14T00:12:24.326Z,0.00
2022-08-14T00:13:18.520Z,0.00
2022-08-14T00:14:18.503Z,0.00
2022-08-14T00:15:18.522Z,0.00
2022-08-14T00:16:41.646Z,0.00
2022-08-14T00:17:18.480Z,0.00
2022-08-14T00:19:05.347Z,0.00
2022-08-14T00:19:21.509Z,0.00
2022-08-14T00:20:23.987Z,0.00
2022-08-14T00:21:18.425Z,0.00
2022-08-14T00:22:44.443Z,0.00
2022-08-14T00:23:18.705Z,0.00
2022-08-14T00:24:23.283Z,0.00
2022-08-14T00:25:18.405Z,0.00
2022-08-14T00:26:21.846Z,0.00
2022-08-14T00:27:18.363Z,0.00
2022-08-14T00:28:18.401Z,0.00
2022-08-14T00:29:18.332Z,0.00
2022-08-14T00:30:18.340Z,0.00
2022-08-14T00:31:18.324Z,0.00
2022-08-14T00:32:52.369Z,0.00
2022-08-14T00:33:18.290Z,0.00
2022-08-14T00:34:37.216Z,0.00
2022-08-14T00:35:18.285Z,0.00
2022-08-14T00:36:35.629Z,0.00
2022-08-14T00:37:18.238Z,0.00
2022-08-14T00:38:18.230Z,0.00
2022-08-14T00:39:18.678Z,0.00
2022-08-14T00:40:27.457Z,0.00
2022-08-14T00:41:18.201Z,0.00
2022-08-14T00:42:21.199Z,0.00
2022-08-14T00:43:18.181Z,0.00
2022-08-14T00:44:21.251Z,0.00
2022-08-14T00:45:18.162Z,0.00
2022-08-14T00:47:27.709Z,0.00
2022-08-14T00:48:34.458Z,0.00
2022-08-14T00:49:30.186Z,0.00
2022-08-14T00:50:28.687Z,0.00
2022-08-14T00:51:37.690Z,0.00
2022-08-14T00:52:28.659Z,0.00
2022-08-14T00:53:28.643Z,0.00
2022-08-14T00:54:28.646Z,0.00
2022-08-14T00:55:30.080Z,0.00
2022-08-14T00:56:31.221Z,0.00
2022-08-14T00:57:28.598Z,0.00
2022-08-14T00:58:33.036Z,0.00
2022-08-14T00:59:28.960Z,0.00
2022-08-14T01:00:37.447Z,0.00
2022-08-14T01:01:28.645Z,0.00
2022-08-14T01:02:31.897Z,0.00
2022-08-14T01:03:28.539Z,0.00
2022-08-14T01:04:38.001Z,0.00
2022-08-14T01:05:29.241Z,0.00
2022-08-14T01:06:30.330Z,0.00
2022-08-14T01:07:28.493Z,0.00
2022-08-14T01:08:57.928Z,0.00
2022-08-14T01:09:28.502Z,0.00
2022-08-14T01:10:28.478Z,0.00
2022-08-14T01:11:35.234Z,0.00
2022-08-14T01:12:29.508Z,0.00
2022-08-14T01:13:28.432Z,0.00
2022-08-14T01:14:28.718Z,0.00
2022-08-14T01:15:57.485Z,0.00
2022-08-14T01:16:31.036Z,0.00
2022-08-14T01:17:28.425Z,0.00
2022-08-14T01:18:28.376Z,0.00
2022-08-14T01:19:28.365Z,0.00
2022-08-14T01:20:29.714Z,0.00
2022-08-14T01:21:28.348Z,0.00
2022-08-14T01:22:29.539Z,0.00
2022-08-14T01:23:41.769Z,0.00
2022-08-14T01:24:30.895Z,0.00
2022-08-14T01:25:28.301Z,0.00
2022-08-14T01:26:35.011Z,0.00
2022-08-14T01:27:28.298Z,0.00
2022-08-14T01:28:46.409Z,0.00
2022-08-14T01:29:58.436Z,0.00
2022-08-14T01:30:28.244Z,0.00
2022-08-14T01:31:30.375Z,0.00
2022-08-14T01:32:30.070Z,0.00
2022-08-14T01:33:28.209Z,0.00
2022-08-14T01:35:17.700Z,0.00
2022-08-14T01:36:04.624Z,0.00
2022-08-14T01:36:28.181Z,0.00
2022-08-14T01:37:28.165Z,0.00
2022-08-14T01:38:28.155Z,0.00
2022-08-14T01:39:28.218Z,0.00
2022-08-14T01:40:36.224Z,0.00
2022-08-14T01:41:29.855Z,0.00
2022-08-14T01:42:32.035Z,0.00
2022-08-14T01:43:28.116Z,0.00
2022-08-14T01:44:32.596Z,0.00
2022-08-14T01:45:28.080Z,0.00
2022-08-14T01:46:33.354Z,0.00
2022-08-14T01:47:37.356Z,0.00
2022-08-14T01:48:28.045Z,0.00
2022-08-14T01:49:35.103Z,0.00
2022-08-14T01:50:28.029Z,0.00
2022-08-14T01:51:28.034Z,0.00
2022-08-14T01:52:34.178Z,0.00
2022-08-14T01:53:31.542Z,0.00
2022-08-14T01:54:37.850Z,0.00
2022-08-14T01:55:27.968Z,0.00
2022-08-14T01:56:27.963Z,0.00
2022-08-14T01:57:49.167Z,0.00
2022-08-14T01:58:28.547Z,0.00
2022-08-14T01:59:38.267Z,0.00
2022-08-14T02:00:27.971Z,0.00
2022-08-14T02:01:27.938Z,0.00
2022-08-14T02:02:27.925Z,0.00
2022-08-14T02:03:29.641Z,0.00
2022-08-14T02:04:54.668Z,0.00
2022-08-14T02:05:27.863Z,0.00
2022-08-14T02:06:32.109Z,0.00
2022-08-14T02:07:44.901Z,0.00
2022-08-14T02:08:34.686Z,0.00
2022-08-14T02:09:27.818Z,0.00
2022-08-14T02:10:27.809Z,0.00
2022-08-14T02:11:29.103Z,0.00
2022-08-14T02:12:29.197Z,0.00
2022-08-14T02:13:27.779Z,0.00
2022-08-14T02:14:31.259Z,0.00
2022-08-14T02:15:27.758Z,0.00
2022-08-14T02:16:27.736Z,0.00
2022-08-14T02:17:27.756Z,0.00
2022-08-14T02:18:27.720Z,0.00
2022-08-14T02:19:27.720Z,0.00
2022-08-14T02:20:27.700Z,0.00
2022-08-14T02:21:27.691Z,0.00
2022-08-14T02:22:32.720Z,0.00
2022-08-14T02:23:32.428Z,0.00
2022-08-14T02:24:39.043Z,0.00
2022-08-14T02:25:29.990Z,0.00
2022-08-14T02:26:29.814Z,0.00
2022-08-14T02:28:23.366Z,0.00
2022-08-14T02:28:57.334Z,0.00
2022-08-14T02:29:27.597Z,0.00
2022-08-14T02:30:30.741Z,0.00
2022-08-14T02:31:28.643Z,0.00
2022-08-14T02:32:30.379Z,0.00
2022-08-14T02:33:29.392Z,0.00
2022-08-14T02:34:27.714Z,0.00
2022-08-14T02:35:32.801Z,0.00
2022-08-14T02:37:03.902Z,0.00
2022-08-14T02:37:47.013Z,0.00
2022-08-14T02:38:30.243Z,0.00
2022-08-14T02:39:27.771Z,0.00
2022-08-14T02:40:32.624Z,0.00
2022-08-14T02:41:28.897Z,0.00
2022-08-14T02:42:37.051Z,0.00
2022-08-14T02:43:37.352Z,0.00
2022-08-14T02:44:29.480Z,0.00
2022-08-14T02:45:32.939Z,0.00
2022-08-14T02:46:32.249Z,0.00
2022-08-14T02:49:04.921Z,0.00
2022-08-14T02:49:37.352Z,0.00
2022-08-14T02:50:37.341Z,0.00
2022-08-14T02:51:37.326Z,0.00
2022-08-14T02:53:13.223Z,0.00
2022-08-14T02:53:37.566Z,0.00
2022-08-14T02:54:37.314Z,0.00
2022-08-14T02:55:37.280Z,0.00
2022-08-14T02:57:15.562Z,0.00
2022-08-14T02:57:39.858Z,0.00
2022-08-14T02:58:37.264Z,0.00
2022-08-14T02:59:37.263Z,0.00
2022-08-14T03:00:39.966Z,0.00
2022-08-14T03:01:50.222Z,0.00
2022-08-14T03:02:56.797Z,0.00
2022-08-14T03:03:38.870Z,0.00
2022-08-14T03:04:37.179Z,0.00
2022-08-14T03:05:41.350Z,0.00
2022-08-14T03:06:57.335Z,0.00
2022-08-14T03:07:37.156Z,0.00
2022-08-14T03:08:37.137Z,0.00
2022-08-14T03:09:42.299Z,0.00
2022-08-14T03:10:37.143Z,0.00
2022-08-14T03:11:37.400Z,0.00
2022-08-14T03:12:37.147Z,0.00
2022-08-14T03:13:37.096Z,0.00
2022-08-14T03:14:37.084Z,0.00
2022-08-14T03:15:37.065Z,0.00
2022-08-14T03:16:38.621Z,0.00
2022-08-14T03:17:40.960Z,0.00
2022-08-14T03:18:37.030Z,0.00
2022-08-14T03:19:37.022Z,0.00
2022-08-14T03:20:37.008Z,0.00
2022-08-14T03:21:36.997Z,0.00
2022-08-14T03:22:36.990Z,0.00
2022-08-14T03:23:38.555Z,0.00
2022-08-14T03:24:36.963Z,0.00
2022-08-14T03:25:37.527Z,0.00
2022-08-14T03:26:36.944Z,0.00
2022-08-14T03:27:48.253Z,0.00
2022-08-14T03:28:36.922Z,0.00
2022-08-14T03:29:36.908Z,0.00
2022-08-14T03:30:39.687Z,0.00
2022-08-14T03:31:36.888Z,0.00
2022-08-14T03:32:36.903Z,0.00
2022-08-14T03:33:38.007Z,4.00
2022-08-14T03:34:47.871Z,4.00
2022-08-14T03:35:40.370Z,0.00
2022-08-14T03:39:11.543Z,4.00
2022-08-14T03:39:21.538Z,0.00
2022-08-14T03:39:46.823Z,4.00
2022-08-14T03:40:46.759Z,8.00
2022-08-14T03:41:46.762Z,4.00
2022-08-14T03:42:46.890Z,4.00
2022-08-14T03:43:46.721Z,8.00
2022-08-14T03:45:19.258Z,8.00
2022-08-14T03:45:48.050Z,12.00
2022-08-14T03:46:54.850Z,12.00
2022-08-14T03:47:58.467Z,16.00
2022-08-14T03:48:46.697Z,16.00
2022-08-14T03:49:50.109Z,16.00
2022-08-14T03:50:47.017Z,24.00
2022-08-14T03:51:46.635Z,28.00
2022-08-14T03:52:48.104Z,28.00
2022-08-14T03:53:46.657Z,36.00
2022-08-14T03:54:46.612Z,40.00
2022-08-14T03:55:46.594Z,44.00
2022-08-14T03:56:46.582Z,48.00
2022-08-14T03:57:46.567Z,60.00
2022-08-14T03:58:46.573Z,64.00
2022-08-14T03:59:46.545Z,72.00
2022-08-14T04:00:46.650Z,80.00
2022-08-14T04:01:57.925Z,92.00
2022-08-14T04:02:47.031Z,100.00
2022-08-14T04:03:46.500Z,112.00
2022-08-14T04:04:46.488Z,124.00
2022-08-14T04:05:49.034Z,140.00
2022-08-14T04:06:48.530Z,156.00
2022-08-14T04:07:49.752Z,172.00
2022-08-14T04:08:46.443Z,188.00
2022-08-14T04:09:46.435Z,204.00
2022-08-14T04:10:46.430Z,228.00
2022-08-14T04:11:46.434Z,244.00
2022-08-14T04:12:51.708Z,268.00
2022-08-14T04:13:46.393Z,296.00
2022-08-14T04:14:46.393Z,324.00
2022-08-14T04:15:56.131Z,356.00
2022-08-14T04:16:46.387Z,380.00
2022-08-14T04:17:46.400Z,412.00
2022-08-14T04:18:46.352Z,440.00
2022-08-14T04:19:46.325Z,468.00
2022-08-14T04:20:54.300Z,504.00
2022-08-14T04:22:02.389Z,540.00
2022-08-14T04:22:46.311Z,576.00
2022-08-14T04:23:46.539Z,616.00
2022-08-14T04:24:46.267Z,656.00
2022-08-14T04:25:46.259Z,700.00
2022-08-14T04:26:46.269Z,736.00
2022-08-14T04:28:02.106Z,776.00
2022-08-14T04:29:02.170Z,816.00
2022-08-14T04:29:46.219Z,856.00
2022-08-14T04:30:46.203Z,892.00
2022-08-14T04:32:57.335Z,968.00
2022-08-14T04:32:59.000Z,932.00
2022-08-14T04:33:46.169Z,1012.00
2022-08-14T04:34:51.981Z,1056.00
2022-08-14T04:35:56.460Z,1100.00
2022-08-14T04:36:46.801Z,1136.00
2022-08-14T04:37:46.122Z,1180.00
2022-08-14T04:38:46.939Z,1224.00
2022-08-14T04:39:46.725Z,1260.00
2022-08-14T04:40:46.091Z,1300.00
2022-08-14T04:41:46.108Z,1340.00
2022-08-14T04:42:47.657Z,1380.00
2022-08-14T04:43:46.056Z,1420.00
2022-08-14T04:44:51.440Z,1460.00
2022-08-14T04:45:46.039Z,1500.00
2022-08-14T04:46:56.074Z,1544.00
2022-08-14T04:47:46.465Z,1584.00
2022-08-14T04:48:51.120Z,1620.00
2022-08-14T04:49:56.697Z,1656.00
2022-08-14T04:50:49.114Z,1696.00
2022-08-14T04:51:46.794Z,1732.00
2022-08-14T04:52:46.004Z,1768.00
2022-08-14T04:53:45.956Z,1808.00
2022-08-14T04:54:45.932Z,1844.00
2022-08-14T04:55:46.131Z,1884.00
2022-08-14T04:56:45.914Z,1924.00
2022-08-14T04:57:45.925Z,1964.00
2022-08-14T04:58:45.898Z,2004.00
2022-08-14T04:59:45.889Z,2044.00
2022-08-14T05:00:45.878Z,2084.00
2022-08-14T05:01:48.853Z,2124.00
2022-08-14T05:02:46.161Z,2164.00
2022-08-14T05:03:45.842Z,2204.00
2022-08-14T05:04:58.464Z,2244.00
2022-08-14T05:05:45.810Z,2284.00
2022-08-14T05:06:45.806Z,2324.00
2022-08-14T05:07:54.159Z,2364.00
2022-08-14T05:08:56.935Z,2400.00
2022-08-14T05:09:47.872Z,2440.00
2022-08-14T05:10:45.784Z,2476.00
2022-08-14T05:11:45.749Z,2516.00
2022-08-14T05:13:13.281Z,2552.00
2022-08-14T05:14:53.294Z,2628.00
2022-08-14T05:15:45.722Z,2668.00
2022-08-14T05:16:46.821Z,2712.00
2022-08-14T05:17:53.878Z,2836.00
2022-08-14T05:19:18.019Z,2960.00
2022-08-14T05:21:04.126Z,2912.00
2022-08-14T05:21:55.987Z,4048.00
2022-08-14T05:21:58.292Z,3340.00
2022-08-14T05:22:45.855Z,4576.00
2022-08-14T05:23:45.621Z,4696.00
2022-08-14T05:24:45.620Z,4776.00
2022-08-14T05:25:45.628Z,4840.00
2022-08-14T05:26:45.586Z,4900.00
2022-08-14T05:27:45.574Z,4972.00
2022-08-14T05:28:45.563Z,5048.00
2022-08-14T05:29:45.552Z,5100.00
2022-08-14T05:30:45.551Z,5152.00
2022-08-14T05:31:45.535Z,5200.00
2022-08-14T05:32:46.733Z,5236.00
2022-08-14T05:33:45.506Z,5296.00
2022-08-14T05:34:45.790Z,5340.00
2022-08-14T05:35:46.644Z,5376.00
2022-08-14T05:36:50.442Z,5428.00
2022-08-14T05:38:55.296Z,5528.00
2022-08-14T05:39:55.616Z,5580.00
2022-08-14T05:40:55.408Z,5628.00
2022-08-14T05:41:55.440Z,5688.00
2022-08-14T05:42:55.390Z,5744.00
2022-08-14T05:43:55.391Z,5808.00
2022-08-14T05:44:56.036Z,5872.00
2022-08-14T05:45:55.355Z,5932.00
2022-08-14T05:46:55.343Z,5988.00
2022-08-14T05:47:55.327Z,6048.00
2022-08-14T05:48:55.369Z,6100.00
2022-08-14T05:49:55.313Z,6136.00
2022-08-14T05:50:55.297Z,6176.00
2022-08-14T05:51:55.294Z,6220.00
2022-08-14T05:52:55.605Z,6268.00
2022-08-14T05:54:01.828Z,6296.00
2022-08-14T05:54:55.254Z,6344.00
2022-08-14T05:55:55.251Z,6376.00
2022-08-14T05:56:55.355Z,6420.00
2022-08-14T05:57:59.419Z,6456.00
2022-08-14T05:58:55.241Z,6508.00
2022-08-14T05:59:55.205Z,6560.00
2022-08-14T06:00:55.207Z,6624.00
2022-08-14T06:01:55.212Z,6684.00
2022-08-14T06:02:55.172Z,6736.00
2022-08-14T06:03:55.189Z,6780.00
2022-08-14T06:04:55.146Z,6820.00
2022-08-14T06:05:55.139Z,6856.00
2022-08-14T06:06:55.127Z,6924.00
2022-08-14T06:07:55.115Z,6976.00
2022-08-14T06:08:55.126Z,7012.00
2022-08-14T06:09:55.105Z,7064.00
2022-08-14T06:10:55.082Z,7092.00
2022-08-14T06:11:55.074Z,7128.00
2022-08-14T06:12:56.382Z,7180.00
2022-08-14T06:13:55.073Z,7244.00
2022-08-14T06:14:55.065Z,7284.00
2022-08-14T06:15:55.025Z,7328.00
2022-08-14T06:16:55.017Z,7384.00
2022-08-14T06:17:58.661Z,7412.00
2022-08-14T06:18:54.998Z,7452.00
2022-08-14T06:19:54.992Z,7512.00
2022-08-14T06:20:54.983Z,7556.00
2022-08-14T06:21:58.215Z,7608.00
2022-08-14T06:22:54.964Z,7644.00
2022-08-14T06:23:54.953Z,7664.00
2022-08-14T06:24:54.948Z,7732.00
2022-08-14T06:25:54.930Z,7788.00
2022-08-14T06:26:57.031Z,7824.00
2022-08-14T06:27:54.957Z,7860.00
2022-08-14T06:28:54.888Z,7920.00
2022-08-14T06:29:54.880Z,7964.00
2022-08-14T06:30:54.869Z,8036.00
2022-08-14T06:32:00.095Z,8084.00
2022-08-14T06:32:55.317Z,8132.00
2022-08-14T06:35:03.966Z,8220.00
2022-08-14T06:35:11.110Z,8172.00
2022-08-14T06:35:54.833Z,8272.00
2022-08-14T06:36:54.803Z,8312.00
2022-08-14T06:37:54.934Z,8380.00
2022-08-14T06:38:54.780Z,8448.00
2022-08-14T06:39:54.800Z,8476.00
2022-08-14T06:40:54.760Z,8536.00
2022-08-14T06:41:58.390Z,8604.00
2022-08-14T06:42:54.836Z,8640.00
2022-08-14T06:43:54.725Z,8684.00
2022-08-14T06:44:54.713Z,8744.00
2022-08-14T06:45:54.843Z,8804.00
2022-08-14T06:46:54.705Z,8860.00
2022-08-14T06:47:54.700Z,8932.00
2022-08-14T06:48:54.666Z,8992.00
2022-08-14T06:49:58.121Z,9060.00
2022-08-14T06:50:54.650Z,9128.00
2022-08-14T06:51:54.635Z,9204.00
2022-08-14T06:52:54.640Z,9272.00
2022-08-14T06:53:54.614Z,9328.00
2022-08-14T06:54:54.604Z,9388.00
2022-08-14T06:56:00.763Z,9468.00
2022-08-14T06:56:54.602Z,9544.00
2022-08-14T06:57:54.598Z,9620.00
2022-08-14T06:58:54.570Z,9668.00
2022-08-14T06:59:54.549Z,9744.00
2022-08-14T07:00:54.598Z,9808.00
2022-08-14T07:01:56.553Z,9840.00
2022-08-14T07:02:54.544Z,9924.00
2022-08-14T07:03:54.507Z,10004.00
2022-08-14T07:04:54.509Z,10052.00
2022-08-14T07:05:55.886Z,10124.00
2022-08-14T07:06:55.866Z,10204.00
2022-08-14T07:07:54.514Z,10252.00
2022-08-14T07:08:54.457Z,10312.00
2022-08-14T07:09:54.441Z,10352.00
2022-08-14T07:10:54.433Z,10428.00
2022-08-14T07:11:54.422Z,10484.00
2022-08-14T07:13:03.993Z,10544.00
2022-08-14T07:13:54.409Z,10632.00
2022-08-14T07:15:00.982Z,10644.00
2022-08-14T07:15:55.185Z,10676.00
2022-08-14T07:16:54.376Z,10740.00
2022-08-14T07:17:54.381Z,10808.00
2022-08-14T07:18:54.349Z,10848.00
2022-08-14T07:19:54.341Z,10888.00
2022-08-14T07:20:54.325Z,10900.00
2022-08-14T07:21:54.316Z,10956.00
2022-08-14T07:22:56.897Z,10980.00
2022-08-14T07:23:54.307Z,10984.00
2022-08-14T07:24:54.278Z,11020.00
2022-08-14T07:25:54.273Z,11072.00
2022-08-14T07:26:54.265Z,11112.00
2022-08-14T07:27:54.272Z,11156.00
2022-08-14T07:28:54.242Z,11200.00
2022-08-14T07:29:54.229Z,11212.00
2022-08-14T07:30:54.219Z,11260.00
2022-08-14T07:31:54.201Z,11300.00
2022-08-14T07:32:54.205Z,11384.00
2022-08-14T07:33:54.192Z,11440.00
2022-08-14T07:34:54.178Z,11476.00
2022-08-14T07:35:57.705Z,11516.00
2022-08-14T07:37:01.205Z,11568.00
2022-08-14T07:37:54.143Z,11604.00
2022-08-14T07:40:03.531Z,11736.00
2022-08-14T07:41:04.370Z,11820.00
2022-08-14T07:42:04.390Z,11872.00
2022-08-14T07:43:14.371Z,11936.00
2022-08-14T07:44:32.644Z,12016.00
2022-08-14T07:45:04.327Z,12088.00
2022-08-14T07:46:04.347Z,12124.00
2022-08-14T07:47:05.225Z,12204.00
2022-08-14T07:48:04.579Z,12284.00
2022-08-14T07:49:04.294Z,12252.00
2022-08-14T07:50:04.274Z,12360.00
2022-08-14T07:51:10.892Z,12500.00
2022-08-14T07:52:04.271Z,12540.00
2022-08-14T07:53:04.250Z,12588.00
2022-08-14T07:54:04.245Z,12660.00
2022-08-14T07:55:04.246Z,12720.00
2022-08-14T07:56:08.941Z,12800.00
2022-08-14T07:57:11.982Z,12840.00
2022-08-14T07:58:05.969Z,12892.00
2022-08-14T07:59:04.179Z,12932.00
2022-08-14T08:00:04.211Z,12996.00
2022-08-14T08:01:04.161Z,13040.00
2022-08-14T08:02:04.154Z,12948.00
2022-08-14T08:03:04.248Z,13076.00
2022-08-14T08:04:04.135Z,13192.00
2022-08-14T08:05:04.142Z,13260.00
2022-08-14T08:06:04.114Z,13352.00
2022-08-14T08:07:05.498Z,13444.00
2022-08-14T08:08:04.145Z,13484.00
2022-08-14T08:09:04.086Z,13544.00
2022-08-14T08:10:04.096Z,13476.00
2022-08-14T08:11:04.060Z,13492.00
2022-08-14T08:12:04.820Z,13564.00
2022-08-14T08:13:04.036Z,13584.00
2022-08-14T08:14:04.018Z,13640.00
2022-08-14T08:15:07.199Z,13740.00
2022-08-14T08:16:04.006Z,13804.00
2022-08-14T08:17:04.003Z,13872.00
2022-08-14T08:18:04.135Z,13920.00
2022-08-14T08:19:12.665Z,13988.00
2022-08-14T08:20:03.955Z,13996.00
2022-08-14T08:21:03.976Z,14028.00
2022-08-14T08:22:03.936Z,14152.00
2022-08-14T08:23:06.264Z,14240.00
2022-08-14T08:24:03.928Z,14176.00
2022-08-14T08:25:06.455Z,14248.00
2022-08-14T08:26:03.921Z,14384.00
2022-08-14T08:27:03.881Z,14424.00
2022-08-14T08:28:08.240Z,14436.00
2022-08-14T08:29:03.872Z,14516.00
2022-08-14T08:30:03.853Z,14556.00
2022-08-14T08:31:03.852Z,14524.00
2022-08-14T08:32:06.258Z,14600.00
2022-08-14T08:33:03.849Z,14752.00
2022-08-14T08:34:03.804Z,14808.00
2022-08-14T08:35:03.798Z,14812.00
2022-08-14T08:36:03.806Z,14856.00
2022-08-14T08:37:07.271Z,14876.00
2022-08-14T08:38:03.794Z,14856.00
2022-08-14T08:39:15.316Z,14880.00
2022-08-14T08:40:04.332Z,14920.00
2022-08-14T08:41:03.732Z,14988.00
2022-08-14T08:42:04.204Z,15012.00
2022-08-14T08:43:03.735Z,14952.00
2022-08-14T08:44:03.709Z,15116.00
2022-08-14T08:45:03.698Z,15136.00
2022-08-14T08:46:03.694Z,15124.00
2022-08-14T08:47:03.804Z,15144.00
2022-08-14T08:48:03.700Z,15180.00
2022-08-14T08:49:03.656Z,15180.00
2022-08-14T08:50:03.639Z,15268.00
2022-08-14T08:51:03.628Z,15184.00
2022-08-14T08:52:03.622Z,15280.00
2022-08-14T08:53:03.605Z,15316.00
2022-08-14T08:54:03.595Z,15340.00
2022-08-14T08:55:04.951Z,15352.00
2022-08-14T08:56:03.573Z,15392.00
2022-08-14T08:57:03.565Z,15456.00
2022-08-14T08:58:03.567Z,15304.00
2022-08-14T08:59:03.550Z,15344.00
2022-08-14T09:00:10.011Z,15180.00
2022-08-14T09:01:03.594Z,15236.00
2022-08-14T09:02:03.980Z,15196.00
2022-08-14T09:03:04.080Z,15228.00
2022-08-14T09:04:03.491Z,15328.00
2022-08-14T09:05:03.511Z,15452.00
2022-08-14T09:06:03.491Z,15564.00
2022-08-14T09:07:09.880Z,15612.00
2022-08-14T09:08:03.449Z,15716.00
2022-08-14T09:09:03.439Z,15776.00
2022-08-14T09:10:03.714Z,15736.00
2022-08-14T09:11:19.461Z,15724.00
2022-08-14T09:12:03.411Z,15664.00
2022-08-14T09:13:03.393Z,15660.00
2022-08-14T09:14:03.384Z,15644.00
2022-08-14T09:15:03.390Z,15620.00
2022-08-14T09:16:18.358Z,15708.00
2022-08-14T09:17:03.608Z,15704.00
2022-08-14T09:18:03.350Z,15728.00
2022-08-14T09:19:03.378Z,15780.00
2022-08-14T09:20:04.099Z,15892.00
2022-08-14T09:21:03.321Z,15952.00
2022-08-14T09:22:03.308Z,15896.00
2022-08-14T09:23:03.289Z,15796.00
2022-08-14T09:24:29.193Z,15884.00
2022-08-14T09:25:03.273Z,15884.00
2022-08-14T09:26:04.957Z,15924.00
2022-08-14T09:27:03.244Z,16008.00
2022-08-14T09:28:03.240Z,16172.00
2022-08-14T09:29:03.244Z,16132.00
2022-08-14T09:30:12.675Z,16240.00
2022-08-14T09:31:07.386Z,16280.00
2022-08-14T09:32:03.192Z,16172.00
2022-08-14T09:33:11.721Z,16044.00
2022-08-14T09:34:04.360Z,16108.00
2022-08-14T09:35:03.195Z,16112.00
2022-08-14T09:36:03.162Z,16324.00
2022-08-14T09:37:03.150Z,16456.00
2022-08-14T09:38:03.132Z,16416.00
2022-08-14T09:39:03.122Z,16432.00
2022-08-14T09:41:12.019Z,16452.00
2022-08-14T09:42:21.406Z,16332.00
2022-08-14T09:43:12.696Z,16140.00
2022-08-14T09:44:12.687Z,16280.00
2022-08-14T09:45:12.671Z,16296.00
2022-08-14T09:46:16.946Z,16260.00
2022-08-14T09:47:14.637Z,16388.00
2022-08-14T09:48:12.644Z,16420.00
2022-08-14T09:49:16.408Z,16424.00
2022-08-14T09:50:12.654Z,16324.00
2022-08-14T09:51:12.668Z,16384.00
2022-08-14T09:52:33.370Z,16456.00
2022-08-14T09:53:18.477Z,16424.00
2022-08-14T09:54:22.633Z,16416.00
2022-08-14T09:55:12.570Z,16428.00
2022-08-14T09:56:12.586Z,16440.00
2022-08-14T09:57:12.550Z,16480.00
2022-08-14T09:58:19.279Z,16500.00
2022-08-14T09:59:12.523Z,16612.00
2022-08-14T10:00:29.548Z,16508.00
2022-08-14T10:01:12.517Z,16572.00
2022-08-14T10:02:12.544Z,16596.00
2022-08-14T10:03:12.537Z,16632.00
2022-08-14T10:04:12.475Z,16656.00
2022-08-14T10:05:13.129Z,16696.00
2022-08-14T10:06:12.666Z,16864.00
2022-08-14T10:07:12.515Z,16988.00
2022-08-14T10:08:14.846Z,17216.00
2022-08-14T10:09:16.770Z,17376.00
2022-08-14T10:10:23.603Z,17440.00
2022-08-14T10:11:12.428Z,17536.00
2022-08-14T10:12:13.373Z,17440.00
2022-08-14T10:13:12.405Z,17760.00
2022-08-14T10:14:12.365Z,18048.00
2022-08-14T10:15:12.363Z,17888.00
2022-08-14T10:16:25.663Z,17696.00
2022-08-14T10:17:12.346Z,17536.00
2022-08-14T10:18:13.403Z,17472.00
2022-08-14T10:19:12.326Z,17312.00
2022-08-14T10:20:40.478Z,17344.00
2022-08-14T10:21:12.327Z,17280.00
2022-08-14T10:23:14.964Z,17344.00
2022-08-14T10:23:16.288Z,17408.00
2022-08-14T10:24:12.268Z,17344.00
2022-08-14T10:25:12.254Z,17472.00
2022-08-14T10:26:23.168Z,17568.00
2022-08-14T10:27:12.242Z,17536.00
2022-08-14T10:28:39.461Z,17632.00
2022-08-14T10:29:20.159Z,17696.00
2022-08-14T10:30:12.360Z,17792.00
2022-08-14T10:31:12.199Z,17792.00
2022-08-14T10:32:17.913Z,17952.00
2022-08-14T10:33:12.199Z,17920.00
2022-08-14T10:34:12.998Z,17952.00
2022-08-14T10:35:14.337Z,17984.00
2022-08-14T10:36:15.506Z,17952.00
2022-08-14T10:37:14.624Z,17760.00
2022-08-14T10:38:12.136Z,17664.00
2022-08-14T10:39:12.170Z,17600.00
2022-08-14T10:40:38.604Z,17440.00
2022-08-14T10:41:12.169Z,17472.00
2022-08-14T10:42:16.602Z,17696.00
2022-08-14T10:43:12.078Z,17728.00
2022-08-14T10:44:21.576Z,17856.00
2022-08-14T10:45:12.077Z,18112.00
2022-08-14T10:47:36.449Z,18176.00
2022-08-14T10:47:39.554Z,18272.00
2022-08-14T10:48:24.394Z,18528.00
2022-08-14T10:49:12.006Z,18592.00
2022-08-14T10:50:14.896Z,18944.00
2022-08-14T10:51:11.981Z,18880.00
2022-08-14T10:52:11.974Z,19168.00
2022-08-14T10:53:11.957Z,19424.00
2022-08-14T10:54:17.131Z,19264.00
2022-08-14T10:55:12.702Z,19136.00
2022-08-14T10:56:21.181Z,19520.00
2022-08-14T10:57:11.917Z,19296.00
2022-08-14T10:58:11.912Z,19168.00
2022-08-14T10:59:11.894Z,19200.00
2022-08-14T11:00:11.885Z,19168.00
2022-08-14T11:01:11.905Z,19328.00
2022-08-14T11:02:11.868Z,19104.00
2022-08-14T11:03:11.854Z,18912.00
2022-08-14T11:04:11.893Z,18272.00
2022-08-14T11:05:11.839Z,16928.00
2022-08-14T11:06:11.849Z,18112.00
2022-08-14T11:07:11.822Z,18272.00
2022-08-14T11:08:12.756Z,18208.00
2022-08-14T11:09:11.793Z,18560.00
2022-08-14T11:10:11.778Z,18656.00
2022-08-14T11:11:11.795Z,18528.00
2022-08-14T11:12:34.846Z,18464.00
2022-08-14T11:13:11.750Z,18336.00
2022-08-14T11:14:11.747Z,18464.00
2022-08-14T11:15:11.746Z,18464.00
2022-08-14T11:16:11.745Z,17888.00
2022-08-14T11:17:11.710Z,11756.00
2022-08-14T11:18:12.004Z,10124.00
2022-08-14T11:19:11.694Z,10432.00
2022-08-14T11:20:13.943Z,10952.00
2022-08-14T11:21:11.693Z,17280.00
2022-08-14T11:22:15.321Z,17504.00
2022-08-14T11:23:11.649Z,17312.00
2022-08-14T11:24:54.462Z,17216.00
2022-08-14T11:25:11.644Z,17216.00
2022-08-14T11:26:11.641Z,17088.00
2022-08-14T11:27:11.606Z,17312.00
2022-08-14T11:28:14.496Z,17472.00
2022-08-14T11:29:11.581Z,17312.00
2022-08-14T11:30:51.714Z,17184.00
2022-08-14T11:31:11.578Z,17184.00
2022-08-14T11:32:11.551Z,17280.00
2022-08-14T11:33:11.540Z,17568.00
2022-08-14T11:34:32.253Z,17056.00
2022-08-14T11:35:11.523Z,17280.00
2022-08-14T11:36:18.553Z,17408.00
2022-08-14T11:37:22.815Z,17344.00
2022-08-14T11:38:11.493Z,17120.00
2022-08-14T11:39:11.467Z,16864.00
2022-08-14T11:40:11.519Z,13040.00
2022-08-14T11:42:57.959Z,17024.00
2022-08-14T11:43:22.640Z,16352.00
2022-08-14T11:44:45.418Z,16800.00
2022-08-14T11:45:23.186Z,16460.00
2022-08-14T11:46:30.574Z,16212.00
2022-08-14T11:47:21.350Z,16060.00
2022-08-14T11:49:02.563Z,16116.00
2022-08-14T11:49:22.126Z,16288.00
2022-08-14T11:50:33.747Z,16372.00
2022-08-14T11:51:24.036Z,16736.00
2022-08-14T11:52:21.692Z,16992.00
2022-08-14T11:53:21.287Z,17216.00
2022-08-14T11:54:33.607Z,17408.00
2022-08-14T11:55:25.577Z,17632.00
2022-08-14T11:56:25.359Z,17824.00
2022-08-14T11:57:22.882Z,18112.00
2022-08-14T11:58:23.945Z,18432.00
2022-08-14T11:59:26.176Z,18528.00
2022-08-14T12:00:21.216Z,14656.00
2022-08-14T12:01:21.197Z,12468.00
2022-08-14T12:03:01.030Z,18464.00
2022-08-14T12:03:37.366Z,18784.00
2022-08-14T12:04:32.811Z,19296.00
2022-08-14T12:05:21.335Z,19136.00
2022-08-14T12:06:28.115Z,19520.00
2022-08-14T12:07:21.145Z,19008.00
2022-08-14T12:08:24.258Z,18816.00
2022-08-14T12:09:21.123Z,18048.00
2022-08-14T12:10:25.494Z,16608.00
2022-08-14T12:11:21.117Z,10896.00
2022-08-14T12:12:36.088Z,12592.00
2022-08-14T12:13:22.450Z,11344.00
2022-08-14T12:14:31.156Z,14516.00
2022-08-14T12:15:21.065Z,17344.00
2022-08-14T12:16:21.095Z,17408.00
2022-08-14T12:17:23.982Z,17152.00
2022-08-14T12:18:21.037Z,17120.00
2022-08-14T12:19:21.029Z,17152.00
2022-08-14T12:20:30.028Z,16992.00
2022-08-14T12:21:21.017Z,17152.00
2022-08-14T12:22:29.569Z,17632.00
2022-08-14T12:23:20.979Z,17600.00
2022-08-14T12:24:35.980Z,17888.00
2022-08-14T12:25:20.963Z,18016.00
2022-08-14T12:26:39.455Z,18240.00
2022-08-14T12:27:25.055Z,18624.00